sensor_id;sensor_type;location;lat;lon;timestamp;P1;durP1;ratioP1;P2;durP2;ratioP2
4835;SDS011;2432;51.226;6.904;2022-10-16T00:00:39;10.77;;;3.37;;
4835;SDS011;2432;51.226;6.904;2022-10-16T00:03:06;9.30;;;3.13;;
4835;SDS011;2432;51.226;6.904;2022-10-16T00:05:37;15.93;;;3.50;;
4835;SDS011;2432;51.226;6.904;2022-10-16T00:08:06;10.20;;;3.50;;
4835;SDS011;2432;51.226;6.904;2022-10-16T00:10:33;10.73;;;2.87;;
4835;SDS011;2432;51.226;6.904;2022-10-16T00:12:59;12.10;;;3.00;;
4835;SDS011;2432;51.226;6.904;2022-10-16T00:15:26;10.63;;;3.80;;
4835;SDS011;2432;51.226;6.904;2022-10-16T00:17:52;12.73;;;3.37;;
4835;SDS011;2432;51.226;6.904;2022-10-16T00:20:19;12.30;;;3.80;;
4835;SDS011;2432;51.226;6.904;2022-10-16T00:22:45;11.00;;;3.00;;
4835;SDS011;2432;51.226;6.904;2022-10-16T00:25:12;11.27;;;3.47;;
4835;SDS011;2432;51.226;6.904;2022-10-16T00:27:38;11.40;;;3.60;;
4835;SDS011;2432;51.226;6.904;2022-10-16T00:30:05;11.20;;;3.10;;
4835;SDS011;2432;51.226;6.904;2022-10-16T00:32:34;11.77;;;3.30;;
4835;SDS011;2432;51.226;6.904;2022-10-16T00:35:00;11.57;;;3.10;;
4835;SDS011;2432;51.226;6.904;2022-10-16T00:37:27;9.70;;;3.00;;
4835;SDS011;2432;51.226;6.904;2022-10-16T00:39:53;11.37;;;3.47;;
4835;SDS011;2432;51.226;6.904;2022-10-16T00:42:20;9.33;;;2.50;;
4835;SDS011;2432;51.226;6.904;2022-10-16T00:47:21;10.00;;;3.40;;
4835;SDS011;2432;51.226;6.904;2022-10-16T00:49:53;16.80;;;3.30;;
4835;SDS011;2432;51.226;6.904;2022-10-16T00:52:24;18.50;;;2.97;;
4835;SDS011;2432;51.226;6.904;2022-10-16T00:54:52;11.07;;;3.00;;
4835;SDS011;2432;51.226;6.904;2022-10-16T00:57:20;11.17;;;3.50;;
4835;SDS011;2432;51.226;6.904;2022-10-16T00:59:47;11.33;;;3.40;;
4835;SDS011;2432;51.226;6.904;2022-10-16T01:02:15;13.90;;;3.80;;
4835;SDS011;2432;51.226;6.904;2022-10-16T01:04:43;11.90;;;3.30;;
4835;SDS011;2432;51.226;6.904;2022-10-16T01:13:10;11.40;;;3.67;;
4835;SDS011;2432;51.226;6.904;2022-10-16T01:15:42;12.23;;;3.93;;
4835;SDS011;2432;51.226;6.904;2022-10-16T01:18:23;28.77;;;4.97;;
4835;SDS011;2432;51.226;6.904;2022-10-16T01:21:09;10.93;;;3.23;;
4835;SDS011;2432;51.226;6.904;2022-10-16T01:23:48;13.67;;;3.40;;
4835;SDS011;2432;51.226;6.904;2022-10-16T01:26:31;11.30;;;3.77;;
4835;SDS011;2432;51.226;6.904;2022-10-16T01:29:21;16.93;;;3.60;;
4835;SDS011;2432;51.226;6.904;2022-10-16T01:31:57;14.57;;;3.30;;
4835;SDS011;2432;51.226;6.904;2022-10-16T01:34:35;14.57;;;3.07;;
4835;SDS011;2432;51.226;6.904;2022-10-16T01:37:11;8.90;;;2.90;;
4835;SDS011;2432;51.226;6.904;2022-10-16T01:39:42;12.80;;;3.17;;
4835;SDS011;2432;51.226;6.904;2022-10-16T01:42:15;13.23;;;3.70;;
4835;SDS011;2432;51.226;6.904;2022-10-16T01:44:47;11.90;;;3.30;;
4835;SDS011;2432;51.226;6.904;2022-10-16T01:47:16;10.47;;;3.17;;
4835;SDS011;2432;51.226;6.904;2022-10-16T01:49:46;8.67;;;2.60;;
4835;SDS011;2432;51.226;6.904;2022-10-16T01:52:13;18.50;;;8.57;;
4835;SDS011;2432;51.226;6.904;2022-10-16T01:54:43;16.83;;;5.67;;
4835;SDS011;2432;51.226;6.904;2022-10-16T01:57:13;12.27;;;3.73;;
4835;SDS011;2432;51.226;6.904;2022-10-16T01:59:46;9.10;;;2.90;;
4835;SDS011;2432;51.226;6.904;2022-10-16T02:02:17;14.87;;;3.20;;
4835;SDS011;2432;51.226;6.904;2022-10-16T02:04:48;12.47;;;2.70;;
4835;SDS011;2432;51.226;6.904;2022-10-16T02:07:19;8.87;;;2.70;;
4835;SDS011;2432;51.226;6.904;2022-10-16T02:09:45;9.83;;;2.90;;
4835;SDS011;2432;51.226;6.904;2022-10-16T02:12:20;11.47;;;3.20;;
4835;SDS011;2432;51.226;6.904;2022-10-16T02:14:53;10.03;;;3.17;;
4835;SDS011;2432;51.226;6.904;2022-10-16T02:17:20;10.87;;;3.47;;
4835;SDS011;2432;51.226;6.904;2022-10-16T02:19:47;11.33;;;2.83;;
4835;SDS011;2432;51.226;6.904;2022-10-16T02:22:17;11.63;;;2.83;;
4835;SDS011;2432;51.226;6.904;2022-10-16T02:25:02;12.33;;;3.00;;
4835;SDS011;2432;51.226;6.904;2022-10-16T02:30:14;11.63;;;2.90;;
4835;SDS011;2432;51.226;6.904;2022-10-16T02:32:42;9.83;;;3.27;;
4835;SDS011;2432;51.226;6.904;2022-10-16T02:35:11;10.47;;;3.20;;
4835;SDS011;2432;51.226;6.904;2022-10-16T02:37:39;11.67;;;3.40;;
4835;SDS011;2432;51.226;6.904;2022-10-16T02:40:07;8.77;;;3.47;;
4835;SDS011;2432;51.226;6.904;2022-10-16T02:42:35;9.30;;;3.10;;
4835;SDS011;2432;51.226;6.904;2022-10-16T02:45:03;12.43;;;3.80;;
4835;SDS011;2432;51.226;6.904;2022-10-16T02:47:31;9.50;;;3.10;;
4835;SDS011;2432;51.226;6.904;2022-10-16T02:49:58;9.33;;;3.37;;
4835;SDS011;2432;51.226;6.904;2022-10-16T02:52:24;9.63;;;3.50;;
4835;SDS011;2432;51.226;6.904;2022-10-16T02:54:51;13.07;;;3.30;;
4835;SDS011;2432;51.226;6.904;2022-10-16T02:57:17;12.67;;;3.00;;
4835;SDS011;2432;51.226;6.904;2022-10-16T02:59:44;9.97;;;3.20;;
4835;SDS011;2432;51.226;6.904;2022-10-16T03:02:11;10.33;;;3.50;;
4835;SDS011;2432;51.226;6.904;2022-10-16T03:04:38;14.53;;;3.40;;
4835;SDS011;2432;51.226;6.904;2022-10-16T03:07:04;9.30;;;2.80;;
4835;SDS011;2432;51.226;6.904;2022-10-16T03:09:31;12.27;;;3.67;;
4835;SDS011;2432;51.226;6.904;2022-10-16T03:11:57;11.70;;;2.90;;
4835;SDS011;2432;51.226;6.904;2022-10-16T03:14:24;10.80;;;3.10;;
4835;SDS011;2432;51.226;6.904;2022-10-16T03:16:50;9.40;;;2.67;;
4835;SDS011;2432;51.226;6.904;2022-10-16T03:19:17;10.10;;;3.03;;
4835;SDS011;2432;51.226;6.904;2022-10-16T03:21:44;9.87;;;3.27;;
4835;SDS011;2432;51.226;6.904;2022-10-16T03:24:11;13.90;;;3.20;;
4835;SDS011;2432;51.226;6.904;2022-10-16T03:26:37;10.20;;;2.67;;
4835;SDS011;2432;51.226;6.904;2022-10-16T03:29:04;12.27;;;2.73;;
4835;SDS011;2432;51.226;6.904;2022-10-16T03:31:31;10.80;;;3.23;;
4835;SDS011;2432;51.226;6.904;2022-10-16T03:33:57;11.43;;;3.17;;
4835;SDS011;2432;51.226;6.904;2022-10-16T03:36:24;10.87;;;3.00;;
4835;SDS011;2432;51.226;6.904;2022-10-16T03:38:50;9.70;;;3.27;;
4835;SDS011;2432;51.226;6.904;2022-10-16T03:41:17;11.03;;;3.10;;
4835;SDS011;2432;51.226;6.904;2022-10-16T03:43:43;9.37;;;3.20;;
4835;SDS011;2432;51.226;6.904;2022-10-16T03:46:10;10.97;;;3.40;;
4835;SDS011;2432;51.226;6.904;2022-10-16T03:48:36;11.80;;;3.00;;
4835;SDS011;2432;51.226;6.904;2022-10-16T03:51:03;8.70;;;2.80;;
4835;SDS011;2432;51.226;6.904;2022-10-16T03:53:29;13.73;;;3.00;;
4835;SDS011;2432;51.226;6.904;2022-10-16T03:55:56;13.10;;;2.63;;
4835;SDS011;2432;51.226;6.904;2022-10-16T03:58:22;9.40;;;2.43;;
4835;SDS011;2432;51.226;6.904;2022-10-16T04:00:48;8.50;;;2.73;;
4835;SDS011;2432;51.226;6.904;2022-10-16T04:03:15;9.23;;;2.67;;
4835;SDS011;2432;51.226;6.904;2022-10-16T04:05:41;10.30;;;2.80;;
4835;SDS011;2432;51.226;6.904;2022-10-16T04:08:08;9.80;;;2.43;;
4835;SDS011;2432;51.226;6.904;2022-10-16T04:10:34;9.50;;;2.40;;
4835;SDS011;2432;51.226;6.904;2022-10-16T04:13:01;9.70;;;2.10;;
4835;SDS011;2432;51.226;6.904;2022-10-16T04:15:27;10.40;;;2.13;;
4835;SDS011;2432;51.226;6.904;2022-10-16T04:17:54;7.97;;;2.33;;
4835;SDS011;2432;51.226;6.904;2022-10-16T04:20:20;8.87;;;2.70;;
4835;SDS011;2432;51.226;6.904;2022-10-16T04:22:47;8.77;;;2.77;;
4835;SDS011;2432;51.226;6.904;2022-10-16T04:25:13;10.80;;;2.10;;
4835;SDS011;2432;51.226;6.904;2022-10-16T04:27:40;11.43;;;2.27;;
4835;SDS011;2432;51.226;6.904;2022-10-16T04:30:11;23.63;;;2.23;;
4835;SDS011;2432;51.226;6.904;2022-10-16T04:32:37;8.47;;;2.17;;
4835;SDS011;2432;51.226;6.904;2022-10-16T04:35:04;11.63;;;2.37;;
4835;SDS011;2432;51.226;6.904;2022-10-16T04:37:30;9.10;;;2.13;;
4835;SDS011;2432;51.226;6.904;2022-10-16T04:39:57;11.40;;;2.20;;
4835;SDS011;2432;51.226;6.904;2022-10-16T04:42:23;10.77;;;2.30;;
4835;SDS011;2432;51.226;6.904;2022-10-16T04:44:50;9.57;;;2.17;;
4835;SDS011;2432;51.226;6.904;2022-10-16T04:47:16;11.60;;;2.20;;
4835;SDS011;2432;51.226;6.904;2022-10-16T04:49:43;10.50;;;2.33;;
4835;SDS011;2432;51.226;6.904;2022-10-16T04:52:09;7.67;;;1.93;;
4835;SDS011;2432;51.226;6.904;2022-10-16T04:54:36;8.33;;;2.00;;
4835;SDS011;2432;51.226;6.904;2022-10-16T04:57:02;9.10;;;2.23;;
4835;SDS011;2432;51.226;6.904;2022-10-16T04:59:29;7.87;;;2.10;;
4835;SDS011;2432;51.226;6.904;2022-10-16T05:01:55;7.77;;;2.10;;
4835;SDS011;2432;51.226;6.904;2022-10-16T05:04:21;11.37;;;2.40;;
4835;SDS011;2432;51.226;6.904;2022-10-16T05:06:48;11.50;;;2.50;;
4835;SDS011;2432;51.226;6.904;2022-10-16T05:09:14;9.40;;;2.40;;
4835;SDS011;2432;51.226;6.904;2022-10-16T05:11:41;8.03;;;2.20;;
4835;SDS011;2432;51.226;6.904;2022-10-16T05:14:07;9.13;;;2.07;;
4835;SDS011;2432;51.226;6.904;2022-10-16T05:16:34;8.80;;;2.00;;
4835;SDS011;2432;51.226;6.904;2022-10-16T05:19:00;9.77;;;2.50;;
4835;SDS011;2432;51.226;6.904;2022-10-16T05:21:47;8.43;;;2.17;;
4835;SDS011;2432;51.226;6.904;2022-10-16T05:24:13;11.87;;;2.43;;
4835;SDS011;2432;51.226;6.904;2022-10-16T05:26:40;8.13;;;2.00;;
4835;SDS011;2432;51.226;6.904;2022-10-16T05:29:06;9.53;;;2.40;;
4835;SDS011;2432;51.226;6.904;2022-10-16T05:31:33;7.73;;;2.13;;
4835;SDS011;2432;51.226;6.904;2022-10-16T05:33:59;8.10;;;2.13;;
4835;SDS011;2432;51.226;6.904;2022-10-16T05:36:26;9.40;;;3.13;;
4835;SDS011;2432;51.226;6.904;2022-10-16T05:38:53;9.20;;;2.70;;
4835;SDS011;2432;51.226;6.904;2022-10-16T05:41:20;12.20;;;2.60;;
4835;SDS011;2432;51.226;6.904;2022-10-16T05:43:49;12.07;;;3.63;;
4835;SDS011;2432;51.226;6.904;2022-10-16T05:46:16;9.70;;;2.80;;
4835;SDS011;2432;51.226;6.904;2022-10-16T05:48:43;8.63;;;2.53;;
4835;SDS011;2432;51.226;6.904;2022-10-16T05:51:10;12.57;;;2.40;;
4835;SDS011;2432;51.226;6.904;2022-10-16T05:53:38;7.93;;;2.13;;
4835;SDS011;2432;51.226;6.904;2022-10-16T05:56:06;10.60;;;2.23;;
4835;SDS011;2432;51.226;6.904;2022-10-16T05:58:36;10.00;;;2.40;;
4835;SDS011;2432;51.226;6.904;2022-10-16T06:01:05;10.77;;;2.47;;
4835;SDS011;2432;51.226;6.904;2022-10-16T06:03:34;9.20;;;2.30;;
4835;SDS011;2432;51.226;6.904;2022-10-16T06:06:07;8.80;;;2.23;;
4835;SDS011;2432;51.226;6.904;2022-10-16T06:08:38;8.83;;;2.63;;
4835;SDS011;2432;51.226;6.904;2022-10-16T06:11:06;10.57;;;2.57;;
4835;SDS011;2432;51.226;6.904;2022-10-16T06:13:35;8.07;;;2.37;;
4835;SDS011;2432;51.226;6.904;2022-10-16T06:16:02;12.00;;;2.60;;
4835;SDS011;2432;51.226;6.904;2022-10-16T06:18:29;13.00;;;3.40;;
4835;SDS011;2432;51.226;6.904;2022-10-16T06:20:56;9.30;;;2.30;;
4835;SDS011;2432;51.226;6.904;2022-10-16T06:23:23;8.53;;;2.80;;
4835;SDS011;2432;51.226;6.904;2022-10-16T06:25:50;8.90;;;2.33;;
4835;SDS011;2432;51.226;6.904;2022-10-16T06:28:17;10.63;;;2.43;;
4835;SDS011;2432;51.226;6.904;2022-10-16T06:30:43;9.23;;;2.60;;
4835;SDS011;2432;51.226;6.904;2022-10-16T06:33:10;9.00;;;2.50;;
4835;SDS011;2432;51.226;6.904;2022-10-16T06:35:37;8.80;;;2.10;;
4835;SDS011;2432;51.226;6.904;2022-10-16T06:38:03;12.00;;;2.40;;
4835;SDS011;2432;51.226;6.904;2022-10-16T06:40:30;10.23;;;2.13;;
4835;SDS011;2432;51.226;6.904;2022-10-16T06:42:56;8.23;;;2.20;;
4835;SDS011;2432;51.226;6.904;2022-10-16T06:45:23;9.03;;;2.60;;
4835;SDS011;2432;51.226;6.904;2022-10-16T06:47:50;11.27;;;2.60;;
4835;SDS011;2432;51.226;6.904;2022-10-16T06:50:16;9.43;;;2.50;;
4835;SDS011;2432;51.226;6.904;2022-10-16T06:52:42;14.80;;;3.10;;
4835;SDS011;2432;51.226;6.904;2022-10-16T06:55:09;9.43;;;2.40;;
4835;SDS011;2432;51.226;6.904;2022-10-16T06:57:35;11.40;;;2.67;;
4835;SDS011;2432;51.226;6.904;2022-10-16T07:00:02;9.50;;;2.70;;
4835;SDS011;2432;51.226;6.904;2022-10-16T07:02:29;11.43;;;3.40;;
4835;SDS011;2432;51.226;6.904;2022-10-16T07:04:56;9.10;;;2.73;;
4835;SDS011;2432;51.226;6.904;2022-10-16T07:07:23;8.83;;;2.43;;
4835;SDS011;2432;51.226;6.904;2022-10-16T07:09:52;10.20;;;2.90;;
4835;SDS011;2432;51.226;6.904;2022-10-16T07:12:19;8.63;;;3.00;;
4835;SDS011;2432;51.226;6.904;2022-10-16T07:14:45;10.40;;;2.80;;
4835;SDS011;2432;51.226;6.904;2022-10-16T07:17:11;9.30;;;2.40;;
4835;SDS011;2432;51.226;6.904;2022-10-16T07:19:38;9.97;;;2.60;;
4835;SDS011;2432;51.226;6.904;2022-10-16T07:22:04;9.00;;;2.63;;
4835;SDS011;2432;51.226;6.904;2022-10-16T07:24:31;11.67;;;3.00;;
4835;SDS011;2432;51.226;6.904;2022-10-16T07:26:57;10.07;;;2.90;;
4835;SDS011;2432;51.226;6.904;2022-10-16T07:29:24;9.03;;;3.03;;
4835;SDS011;2432;51.226;6.904;2022-10-16T07:31:50;11.27;;;3.40;;
4835;SDS011;2432;51.226;6.904;2022-10-16T07:34:17;12.00;;;3.20;;
4835;SDS011;2432;51.226;6.904;2022-10-16T07:36:47;9.10;;;3.40;;
4835;SDS011;2432;51.226;6.904;2022-10-16T07:39:14;9.80;;;3.30;;
4835;SDS011;2432;51.226;6.904;2022-10-16T07:41:41;10.00;;;3.53;;
4835;SDS011;2432;51.226;6.904;2022-10-16T07:44:07;10.40;;;3.03;;
4835;SDS011;2432;51.226;6.904;2022-10-16T07:46:34;13.43;;;3.00;;
4835;SDS011;2432;51.226;6.904;2022-10-16T07:49:02;9.63;;;3.20;;
4835;SDS011;2432;51.226;6.904;2022-10-16T07:51:29;12.63;;;3.07;;
4835;SDS011;2432;51.226;6.904;2022-10-16T07:53:56;10.73;;;3.10;;
4835;SDS011;2432;51.226;6.904;2022-10-16T07:56:22;8.63;;;3.27;;
4835;SDS011;2432;51.226;6.904;2022-10-16T07:58:49;14.87;;;4.00;;
4835;SDS011;2432;51.226;6.904;2022-10-16T08:01:16;11.47;;;4.60;;
4835;SDS011;2432;51.226;6.904;2022-10-16T08:03:44;20.47;;;7.97;;
4835;SDS011;2432;51.226;6.904;2022-10-16T08:06:12;18.20;;;4.30;;
4835;SDS011;2432;51.226;6.904;2022-10-16T08:08:39;9.20;;;3.00;;
4835;SDS011;2432;51.226;6.904;2022-10-16T08:11:05;10.17;;;2.80;;
4835;SDS011;2432;51.226;6.904;2022-10-16T08:13:32;9.87;;;2.80;;
4835;SDS011;2432;51.226;6.904;2022-10-16T08:15:59;16.93;;;4.87;;
4835;SDS011;2432;51.226;6.904;2022-10-16T08:18:25;10.90;;;4.07;;
4835;SDS011;2432;51.226;6.904;2022-10-16T08:20:56;10.20;;;3.80;;
4835;SDS011;2432;51.226;6.904;2022-10-16T08:23:24;9.83;;;2.50;;
4835;SDS011;2432;51.226;6.904;2022-10-16T08:25:52;7.70;;;2.20;;
4835;SDS011;2432;51.226;6.904;2022-10-16T08:28:21;15.20;;;6.27;;
4835;SDS011;2432;51.226;6.904;2022-10-16T08:30:48;11.47;;;3.50;;
4835;SDS011;2432;51.226;6.904;2022-10-16T08:33:15;9.10;;;2.33;;
4835;SDS011;2432;51.226;6.904;2022-10-16T08:35:41;8.80;;;2.10;;
4835;SDS011;2432;51.226;6.904;2022-10-16T08:38:08;9.83;;;1.93;;
4835;SDS011;2432;51.226;6.904;2022-10-16T08:40:35;9.23;;;2.03;;
4835;SDS011;2432;51.226;6.904;2022-10-16T08:43:12;8.80;;;2.00;;
4835;SDS011;2432;51.226;6.904;2022-10-16T08:50:52;9.30;;;2.30;;
4835;SDS011;2432;51.226;6.904;2022-10-16T08:53:20;8.37;;;1.90;;
4835;SDS011;2432;51.226;6.904;2022-10-16T08:55:53;8.10;;;2.00;;
4835;SDS011;2432;51.226;6.904;2022-10-16T08:58:21;8.50;;;1.83;;
4835;SDS011;2432;51.226;6.904;2022-10-16T09:01:00;15.20;;;1.80;;
4835;SDS011;2432;51.226;6.904;2022-10-16T09:03:32;12.87;;;2.10;;
4835;SDS011;2432;51.226;6.904;2022-10-16T09:11:56;8.27;;;1.80;;
4835;SDS011;2432;51.226;6.904;2022-10-16T09:17:12;10.80;;;1.70;;
4835;SDS011;2432;51.226;6.904;2022-10-16T09:19:51;9.00;;;1.83;;
4835;SDS011;2432;51.226;6.904;2022-10-16T09:22:23;9.30;;;1.80;;
4835;SDS011;2432;51.226;6.904;2022-10-16T09:24:54;14.50;;;1.93;;
4835;SDS011;2432;51.226;6.904;2022-10-16T09:27:25;9.77;;;1.80;;
4835;SDS011;2432;51.226;6.904;2022-10-16T09:29:53;8.27;;;1.67;;
4835;SDS011;2432;51.226;6.904;2022-10-16T09:32:25;13.43;;;2.47;;
4835;SDS011;2432;51.226;6.904;2022-10-16T09:34:52;8.20;;;1.60;;
4835;SDS011;2432;51.226;6.904;2022-10-16T09:37:22;8.07;;;2.00;;
4835;SDS011;2432;51.226;6.904;2022-10-16T09:39:54;7.40;;;1.60;;
4835;SDS011;2432;51.226;6.904;2022-10-16T09:44:54;8.10;;;1.60;;
4835;SDS011;2432;51.226;6.904;2022-10-16T09:47:21;8.37;;;1.87;;
4835;SDS011;2432;51.226;6.904;2022-10-16T09:50:02;8.90;;;1.70;;
4835;SDS011;2432;51.226;6.904;2022-10-16T09:52:32;8.30;;;1.43;;
4835;SDS011;2432;51.226;6.904;2022-10-16T09:55:09;12.50;;;1.97;;
4835;SDS011;2432;51.226;6.904;2022-10-16T09:57:52;10.93;;;1.57;;
4835;SDS011;2432;51.226;6.904;2022-10-16T10:00:20;8.43;;;1.60;;
4835;SDS011;2432;51.226;6.904;2022-10-16T10:02:48;9.67;;;1.40;;
4835;SDS011;2432;51.226;6.904;2022-10-16T10:05:20;11.30;;;1.40;;
4835;SDS011;2432;51.226;6.904;2022-10-16T10:07:55;9.30;;;1.37;;
4835;SDS011;2432;51.226;6.904;2022-10-16T10:10:28;11.23;;;1.40;;
4835;SDS011;2432;51.226;6.904;2022-10-16T10:12:56;11.20;;;1.30;;
4835;SDS011;2432;51.226;6.904;2022-10-16T10:15:23;11.57;;;1.50;;
4835;SDS011;2432;51.226;6.904;2022-10-16T10:22:57;10.03;;;1.40;;
4835;SDS011;2432;51.226;6.904;2022-10-16T10:31:03;11.20;;;1.30;;
4835;SDS011;2432;51.226;6.904;2022-10-16T10:33:57;11.37;;;1.40;;
4835;SDS011;2432;51.226;6.904;2022-10-16T10:36:40;15.00;;;1.50;;
4835;SDS011;2432;51.226;6.904;2022-10-16T10:39:15;8.80;;;1.50;;
4835;SDS011;2432;51.226;6.904;2022-10-16T10:50:24;8.13;;;1.30;;
4835;SDS011;2432;51.226;6.904;2022-10-16T10:52:58;9.90;;;1.47;;
4835;SDS011;2432;51.226;6.904;2022-10-16T10:58:40;9.10;;;1.30;;
4835;SDS011;2432;51.226;6.904;2022-10-16T11:01:11;14.83;;;1.73;;
4835;SDS011;2432;51.226;6.904;2022-10-16T11:09:23;11.53;;;1.47;;
4835;SDS011;2432;51.226;6.904;2022-10-16T11:11:55;10.30;;;1.30;;
4835;SDS011;2432;51.226;6.904;2022-10-16T11:14:33;9.33;;;1.20;;
4835;SDS011;2432;51.226;6.904;2022-10-16T11:17:08;11.23;;;1.50;;
4835;SDS011;2432;51.226;6.904;2022-10-16T11:19:41;13.27;;;1.33;;
4835;SDS011;2432;51.226;6.904;2022-10-16T11:22:17;11.73;;;1.50;;
4835;SDS011;2432;51.226;6.904;2022-10-16T11:24:55;11.90;;;1.90;;
4835;SDS011;2432;51.226;6.904;2022-10-16T11:27:36;7.97;;;1.20;;
4835;SDS011;2432;51.226;6.904;2022-10-16T11:30:06;9.30;;;1.80;;
4835;SDS011;2432;51.226;6.904;2022-10-16T11:32:49;9.43;;;1.47;;
4835;SDS011;2432;51.226;6.904;2022-10-16T11:35:31;11.27;;;2.30;;
4835;SDS011;2432;51.226;6.904;2022-10-16T11:38:12;11.23;;;1.33;;
4835;SDS011;2432;51.226;6.904;2022-10-16T11:40:49;9.17;;;1.30;;
4835;SDS011;2432;51.226;6.904;2022-10-16T11:43:32;10.00;;;1.40;;
4835;SDS011;2432;51.226;6.904;2022-10-16T11:46:24;10.50;;;1.03;;
4835;SDS011;2432;51.226;6.904;2022-10-16T11:48:54;10.07;;;1.40;;
4835;SDS011;2432;51.226;6.904;2022-10-16T11:57:36;11.80;;;1.40;;
4835;SDS011;2432;51.226;6.904;2022-10-16T12:00:09;8.50;;;1.20;;
4835;SDS011;2432;51.226;6.904;2022-10-16T12:08:23;10.13;;;1.40;;
4835;SDS011;2432;51.226;6.904;2022-10-16T12:10:50;13.67;;;1.50;;
4835;SDS011;2432;51.226;6.904;2022-10-16T12:13:33;9.40;;;1.43;;
4835;SDS011;2432;51.226;6.904;2022-10-16T12:16:05;9.43;;;1.37;;
4835;SDS011;2432;51.226;6.904;2022-10-16T12:18:38;10.17;;;1.33;;
4835;SDS011;2432;51.226;6.904;2022-10-16T12:21:10;9.30;;;1.60;;
4835;SDS011;2432;51.226;6.904;2022-10-16T12:23:49;9.47;;;1.60;;
4835;SDS011;2432;51.226;6.904;2022-10-16T12:26:28;7.60;;;1.00;;
4835;SDS011;2432;51.226;6.904;2022-10-16T12:29:09;11.60;;;1.47;;
4835;SDS011;2432;51.226;6.904;2022-10-16T12:31:44;15.30;;;2.23;;
4835;SDS011;2432;51.226;6.904;2022-10-16T12:34:31;9.20;;;1.60;;
4835;SDS011;2432;51.226;6.904;2022-10-16T12:37:08;12.70;;;1.23;;
4835;SDS011;2432;51.226;6.904;2022-10-16T12:39:38;8.73;;;1.27;;
4835;SDS011;2432;51.226;6.904;2022-10-16T12:42:19;11.43;;;1.80;;
4835;SDS011;2432;51.226;6.904;2022-10-16T12:44:46;9.57;;;1.80;;
4835;SDS011;2432;51.226;6.904;2022-10-16T12:47:20;9.20;;;1.70;;
4835;SDS011;2432;51.226;6.904;2022-10-16T12:49:52;11.17;;;1.33;;
4835;SDS011;2432;51.226;6.904;2022-10-16T12:52:24;8.63;;;1.30;;
4835;SDS011;2432;51.226;6.904;2022-10-16T12:55:00;9.00;;;1.27;;
4835;SDS011;2432;51.226;6.904;2022-10-16T13:06:17;10.10;;;1.47;;
4835;SDS011;2432;51.226;6.904;2022-10-16T13:09:11;11.37;;;1.60;;
4835;SDS011;2432;51.226;6.904;2022-10-16T13:12:16;9.80;;;1.20;;
4835;SDS011;2432;51.226;6.904;2022-10-16T13:15:19;10.83;;;1.40;;
4835;SDS011;2432;51.226;6.904;2022-10-16T13:17:59;10.60;;;1.40;;
4835;SDS011;2432;51.226;6.904;2022-10-16T13:20:36;9.33;;;1.43;;
4835;SDS011;2432;51.226;6.904;2022-10-16T13:23:21;10.80;;;1.80;;
4835;SDS011;2432;51.226;6.904;2022-10-16T13:25:59;8.80;;;1.30;;
4835;SDS011;2432;51.226;6.904;2022-10-16T13:28:47;10.60;;;1.43;;
4835;SDS011;2432;51.226;6.904;2022-10-16T13:31:16;15.30;;;2.10;;
4835;SDS011;2432;51.226;6.904;2022-10-16T13:33:51;11.00;;;1.73;;
4835;SDS011;2432;51.226;6.904;2022-10-16T13:36:29;9.40;;;1.70;;
4835;SDS011;2432;51.226;6.904;2022-10-16T13:39:03;8.77;;;1.60;;
4835;SDS011;2432;51.226;6.904;2022-10-16T13:41:37;12.17;;;1.90;;
4835;SDS011;2432;51.226;6.904;2022-10-16T13:44:04;13.13;;;1.83;;
4835;SDS011;2432;51.226;6.904;2022-10-16T13:46:38;9.37;;;1.40;;
4835;SDS011;2432;51.226;6.904;2022-10-16T13:49:05;9.50;;;1.90;;
4835;SDS011;2432;51.226;6.904;2022-10-16T13:51:56;11.53;;;1.70;;
4835;SDS011;2432;51.226;6.904;2022-10-16T13:54:25;10.50;;;1.60;;
4835;SDS011;2432;51.226;6.904;2022-10-16T13:56:54;8.90;;;1.47;;
4835;SDS011;2432;51.226;6.904;2022-10-16T13:59:35;11.53;;;2.33;;
4835;SDS011;2432;51.226;6.904;2022-10-16T14:04:45;10.20;;;1.90;;
4835;SDS011;2432;51.226;6.904;2022-10-16T14:07:23;17.43;;;1.40;;
4835;SDS011;2432;51.226;6.904;2022-10-16T14:09:52;9.17;;;1.40;;
4835;SDS011;2432;51.226;6.904;2022-10-16T14:12:20;9.00;;;1.67;;
4835;SDS011;2432;51.226;6.904;2022-10-16T14:14:53;9.53;;;1.40;;
4835;SDS011;2432;51.226;6.904;2022-10-16T14:17:26;14.80;;;5.83;;
4835;SDS011;2432;51.226;6.904;2022-10-16T14:19:53;10.10;;;2.77;;
4835;SDS011;2432;51.226;6.904;2022-10-16T14:22:29;12.77;;;2.23;;
4835;SDS011;2432;51.226;6.904;2022-10-16T14:24:58;10.00;;;1.70;;
4835;SDS011;2432;51.226;6.904;2022-10-16T14:27:30;11.27;;;1.40;;
4835;SDS011;2432;51.226;6.904;2022-10-16T14:32:41;9.90;;;1.50;;
4835;SDS011;2432;51.226;6.904;2022-10-16T14:35:26;14.60;;;1.50;;
4835;SDS011;2432;51.226;6.904;2022-10-16T14:37:56;11.43;;;1.30;;
4835;SDS011;2432;51.226;6.904;2022-10-16T14:40:25;8.60;;;1.40;;
4835;SDS011;2432;51.226;6.904;2022-10-16T14:42:53;11.60;;;1.97;;
4835;SDS011;2432;51.226;6.904;2022-10-16T14:45:22;11.50;;;2.73;;
4835;SDS011;2432;51.226;6.904;2022-10-16T14:47:52;10.33;;;1.50;;
4835;SDS011;2432;51.226;6.904;2022-10-16T14:50:21;12.00;;;1.73;;
4835;SDS011;2432;51.226;6.904;2022-10-16T14:52:48;11.00;;;1.87;;
4835;SDS011;2432;51.226;6.904;2022-10-16T14:55:15;9.27;;;1.50;;
4835;SDS011;2432;51.226;6.904;2022-10-16T14:57:42;13.13;;;1.53;;
4835;SDS011;2432;51.226;6.904;2022-10-16T15:00:19;8.20;;;1.40;;
4835;SDS011;2432;51.226;6.904;2022-10-16T15:02:49;14.13;;;1.50;;
4835;SDS011;2432;51.226;6.904;2022-10-16T15:05:23;12.00;;;1.70;;
4835;SDS011;2432;51.226;6.904;2022-10-16T15:07:53;9.07;;;1.47;;
4835;SDS011;2432;51.226;6.904;2022-10-16T15:10:21;16.67;;;3.67;;
4835;SDS011;2432;51.226;6.904;2022-10-16T15:12:49;10.27;;;2.70;;
4835;SDS011;2432;51.226;6.904;2022-10-16T15:17:52;14.40;;;1.70;;
4835;SDS011;2432;51.226;6.904;2022-10-16T15:20:23;11.13;;;1.70;;
4835;SDS011;2432;51.226;6.904;2022-10-16T15:22:51;9.07;;;1.63;;
4835;SDS011;2432;51.226;6.904;2022-10-16T15:25:37;12.70;;;2.43;;
4835;SDS011;2432;51.226;6.904;2022-10-16T15:28:08;11.73;;;1.40;;
4835;SDS011;2432;51.226;6.904;2022-10-16T15:30:35;10.07;;;1.80;;
4835;SDS011;2432;51.226;6.904;2022-10-16T15:33:02;9.60;;;1.40;;
4835;SDS011;2432;51.226;6.904;2022-10-16T15:35:30;8.80;;;1.50;;
4835;SDS011;2432;51.226;6.904;2022-10-16T15:37:56;12.27;;;1.83;;
4835;SDS011;2432;51.226;6.904;2022-10-16T15:40:23;9.73;;;1.70;;
4835;SDS011;2432;51.226;6.904;2022-10-16T15:42:49;10.10;;;1.80;;
4835;SDS011;2432;51.226;6.904;2022-10-16T15:45:16;12.70;;;1.70;;
4835;SDS011;2432;51.226;6.904;2022-10-16T15:47:45;9.97;;;2.10;;
4835;SDS011;2432;51.226;6.904;2022-10-16T15:50:12;13.03;;;2.70;;
4835;SDS011;2432;51.226;6.904;2022-10-16T15:52:40;9.57;;;2.37;;
4835;SDS011;2432;51.226;6.904;2022-10-16T15:55:08;10.33;;;2.50;;
4835;SDS011;2432;51.226;6.904;2022-10-16T15:57:36;11.33;;;2.53;;
4835;SDS011;2432;51.226;6.904;2022-10-16T16:00:07;13.50;;;4.20;;
4835;SDS011;2432;51.226;6.904;2022-10-16T16:02:37;12.93;;;3.63;;
4835;SDS011;2432;51.226;6.904;2022-10-16T16:05:03;9.43;;;1.93;;
4835;SDS011;2432;51.226;6.904;2022-10-16T16:07:34;12.10;;;2.20;;
4835;SDS011;2432;51.226;6.904;2022-10-16T16:10:05;12.40;;;2.30;;
4835;SDS011;2432;51.226;6.904;2022-10-16T16:12:33;12.77;;;2.17;;
4835;SDS011;2432;51.226;6.904;2022-10-16T16:15:00;12.57;;;2.83;;
4835;SDS011;2432;51.226;6.904;2022-10-16T16:17:31;15.10;;;2.00;;
4835;SDS011;2432;51.226;6.904;2022-10-16T16:19:58;13.63;;;2.80;;
4835;SDS011;2432;51.226;6.904;2022-10-16T16:22:25;11.50;;;2.70;;
4835;SDS011;2432;51.226;6.904;2022-10-16T16:24:52;11.90;;;2.47;;
4835;SDS011;2432;51.226;6.904;2022-10-16T16:27:19;12.60;;;2.40;;
4835;SDS011;2432;51.226;6.904;2022-10-16T16:29:46;10.43;;;2.30;;
4835;SDS011;2432;51.226;6.904;2022-10-16T16:32:13;11.37;;;2.47;;
4835;SDS011;2432;51.226;6.904;2022-10-16T16:34:39;15.53;;;6.80;;
4835;SDS011;2432;51.226;6.904;2022-10-16T16:37:06;18.43;;;6.93;;
4835;SDS011;2432;51.226;6.904;2022-10-16T16:39:32;11.37;;;3.13;;
4835;SDS011;2432;51.226;6.904;2022-10-16T16:41:59;11.60;;;3.07;;
4835;SDS011;2432;51.226;6.904;2022-10-16T16:44:25;11.43;;;3.60;;
4835;SDS011;2432;51.226;6.904;2022-10-16T16:46:52;11.60;;;4.20;;
4835;SDS011;2432;51.226;6.904;2022-10-16T16:49:19;15.43;;;3.63;;